createdAt,value
2018-06-07T00:01:00.802Z,3.60
2018-06-07T00:03:30.466Z,3.43
2018-06-07T00:05:58.824Z,3.67
2018-06-07T00:08:27.292Z,3.60
2018-06-07T00:10:55.901Z,3.50
2018-06-07T00:13:24.378Z,3.30
2018-06-07T00:15:52.714Z,3.20
2018-06-07T00:18:22.059Z,3.80
2018-06-07T00:20:51.476Z,3.43
2018-06-07T00:23:20.065Z,3.90
2018-06-07T00:25:48.403Z,3.33
2018-06-07T00:28:17.811Z,3.23
2018-06-07T00:30:46.238Z,3.10
2018-06-07T00:33:15.033Z,3.00
2018-06-07T00:35:43.685Z,3.13
2018-06-07T00:38:12.039Z,3.27
2018-06-07T00:40:40.702Z,2.87
2018-06-07T00:43:09.884Z,3.23
2018-06-07T00:45:38.213Z,2.93
2018-06-07T00:48:06.938Z,3.10
2018-06-07T00:50:35.274Z,2.83
2018-06-07T00:53:03.841Z,2.87
2018-06-07T00:55:33.214Z,3.07
2018-06-07T00:58:02.526Z,2.93
2018-06-07T01:00:31.979Z,3.00
2018-06-07T01:03:00.349Z,3.00
2018-06-07T01:05:28.822Z,3.17
2018-06-07T01:07:57.207Z,3.03
2018-06-07T01:10:25.798Z,3.00
2018-06-07T01:12:54.177Z,3.23
2018-06-07T01:15:22.578Z,3.10
2018-06-07T01:17:51.637Z,3.53
2018-06-07T01:20:20.755Z,3.60
2018-06-07T01:22:49.237Z,3.20
2018-06-07T01:25:17.930Z,2.70
2018-06-07T01:27:47.179Z,3.37
2018-06-07T01:30:24.828Z,3.03
2018-06-07T01:35:57.210Z,3.40
2018-06-07T01:38:37.608Z,3.20
2018-06-07T01:41:06.018Z,3.20
2018-06-07T01:43:35.198Z,3.00
2018-06-07T01:46:03.542Z,2.73
2018-06-07T01:48:31.912Z,2.97
2018-06-07T01:51:00.290Z,3.00
2018-06-07T01:53:28.638Z,3.27
2018-06-07T01:55:57.746Z,3.17
2018-06-07T01:58:26.110Z,3.30
2018-06-07T02:00:55.242Z,3.20
2018-06-07T02:03:23.574Z,3.00
2018-06-07T02:05:52.714Z,2.93
2018-06-07T02:08:21.105Z,5.17
2018-06-07T02:10:49.445Z,16.93
2018-06-07T02:13:17.805Z,8.60
2018-06-07T02:15:46.274Z,4.00
2018-06-07T02:18:14.627Z,3.57
2018-06-07T02:20:42.960Z,3.07
2018-06-07T02:23:11.381Z,3.00
2018-06-07T02:25:39.745Z,3.00
2018-06-07T02:28:08.086Z,3.03
2018-06-07T02:30:37.198Z,3.07
2018-06-07T02:33:06.412Z,2.60
2018-06-07T02:35:34.766Z,2.80
2018-06-07T02:38:04.021Z,2.90
2018-06-07T02:40:32.366Z,2.80
2018-06-07T02:43:00.755Z,3.07
2018-06-07T02:45:29.098Z,2.77
2018-06-07T02:47:58.216Z,2.50
2018-06-07T02:50:27.352Z,2.50
2018-06-07T02:52:55.718Z,2.87
2018-06-07T02:55:24.069Z,2.40
2018-06-07T02:57:52.428Z,2.67
2018-06-07T03:00:21.678Z,2.37
2018-06-07T03:02:50.042Z,2.50
2018-06-07T03:05:18.404Z,3.20
2018-06-07T03:07:47.503Z,2.67
2018-06-07T03:10:15.839Z,2.50
2018-06-07T03:12:44.295Z,2.23
2018-06-07T03:15:12.641Z,2.40
2018-06-07T03:17:41.008Z,2.40
2018-06-07T03:20:09.419Z,2.80
2018-06-07T03:22:37.776Z,2.30
2018-06-07T03:25:06.906Z,2.73
2018-06-07T03:27:35.282Z,2.40
2018-06-07T03:30:03.623Z,2.23
2018-06-07T03:32:32.765Z,10.67
2018-06-07T03:35:01.141Z,9.27
2018-06-07T03:37:29.474Z,2.87
2018-06-07T03:39:58.607Z,2.30
2018-06-07T03:42:26.937Z,2.33
2018-06-07T03:44:55.306Z,2.40
2018-06-07T03:47:23.642Z,2.37
2018-06-07T03:49:52.023Z,2.17
2018-06-07T03:52:20.373Z,2.20
2018-06-07T03:54:48.778Z,2.20
2018-06-07T03:57:17.165Z,2.37
2018-06-07T03:59:45.507Z,2.00
2018-06-07T04:02:14.617Z,2.00
2018-06-07T04:04:43.122Z,2.17
2018-06-07T04:07:11.498Z,2.17
2018-06-07T04:09:39.880Z,2.13
2018-06-07T04:12:08.582Z,2.20
2018-06-07T04:14:36.930Z,1.80
2018-06-07T04:17:05.273Z,2.47
2018-06-07T04:19:33.721Z,2.03
2018-06-07T04:22:02.147Z,2.27
2018-06-07T04:24:31.406Z,2.03
2018-06-07T04:26:59.976Z,2.13
2018-06-07T04:29:29.214Z,2.03
2018-06-07T04:31:57.564Z,1.97
2018-06-07T04:34:25.914Z,8.37
2018-06-07T04:36:54.265Z,6.67
2018-06-07T04:39:23.367Z,2.13
2018-06-07T04:41:52.487Z,2.50
2018-06-07T04:44:20.838Z,2.10
2018-06-07T04:46:49.248Z,2.73
2018-06-07T04:49:17.570Z,8.10
2018-06-07T04:51:46.069Z,4.10
2018-06-07T04:54:15.322Z,2.33
2018-06-07T04:56:43.907Z,2.30
2018-06-07T04:59:12.265Z,2.00
2018-06-07T05:01:41.382Z,2.20
2018-06-07T05:04:09.716Z,2.20
2018-06-07T05:06:38.199Z,1.97
2018-06-07T05:09:06.482Z,2.20
2018-06-07T05:11:35.599Z,2.33
2018-06-07T05:14:03.944Z,1.80
2018-06-07T05:16:32.369Z,2.30
2018-06-07T05:19:00.704Z,3.97
2018-06-07T05:21:29.805Z,2.13
2018-06-07T05:23:58.935Z,2.13
2018-06-07T05:26:27.265Z,1.80
2018-06-07T05:28:55.706Z,2.10
2018-06-07T05:31:24.069Z,1.97
2018-06-07T05:33:52.418Z,2.13
2018-06-07T05:36:21.552Z,1.70
2018-06-07T05:38:49.940Z,1.70
2018-06-07T05:41:19.002Z,1.60
2018-06-07T05:43:49.770Z,1.60
2018-06-07T05:46:18.306Z,1.83
2018-06-07T05:48:47.856Z,1.80
2018-06-07T05:51:16.254Z,1.83
2018-06-07T05:53:44.611Z,2.07
2018-06-07T05:56:12.963Z,1.67
2018-06-07T05:58:42.151Z,1.90
2018-06-07T06:01:11.276Z,2.00
2018-06-07T06:03:40.365Z,2.20
2018-06-07T06:06:08.710Z,2.10
2018-06-07T06:08:37.106Z,2.25
2018-06-07T06:11:05.777Z,2.53
2018-06-07T06:13:34.118Z,1.87
2018-06-07T06:16:02.458Z,2.30
2018-06-07T06:18:30.845Z,3.15
2018-06-07T06:20:59.190Z,3.50
2018-06-07T06:23:27.552Z,3.20
2018-06-07T06:25:55.890Z,2.28
2018-06-07T06:28:24.290Z,2.37
2018-06-07T06:30:52.625Z,2.30
2018-06-07T06:33:21.145Z,2.17
2018-06-07T06:35:50.341Z,1.70
2018-06-07T06:38:38.573Z,1.87
2018-06-07T06:41:06.911Z,1.83
2018-06-07T06:43:35.400Z,1.87
2018-06-07T06:46:03.722Z,1.77
2018-06-07T06:48:32.184Z,1.73
2018-06-07T06:51:00.531Z,1.90
2018-06-07T06:53:29.646Z,1.85
2018-06-07T06:55:57.982Z,1.42
2018-06-07T06:58:26.390Z,2.22
2018-06-07T07:00:55.518Z,1.90
2018-06-07T07:03:23.869Z,1.60
2018-06-07T07:05:52.994Z,1.73
2018-06-07T07:08:21.339Z,1.67
2018-06-07T07:10:50.469Z,1.58
2018-06-07T07:13:18.822Z,1.90
2018-06-07T07:15:47.950Z,1.90
2018-06-07T07:18:16.293Z,1.87
2018-06-07T07:20:45.393Z,1.80
2018-06-07T07:23:14.545Z,1.85
2018-06-07T07:25:42.856Z,1.60
2018-06-07T07:28:11.285Z,2.87
2018-06-07T07:30:39.635Z,3.83
2018-06-07T07:33:08.762Z,2.28
2018-06-07T07:35:37.140Z,1.90
2018-06-07T07:38:05.461Z,2.30
2018-06-07T07:40:33.819Z,2.37
2018-06-07T07:43:02.183Z,1.77
2018-06-07T07:45:30.559Z,2.05
2018-06-07T07:47:58.900Z,1.92
2018-06-07T07:50:28.115Z,2.00
2018-06-07T07:52:56.459Z,2.47
2018-06-07T07:55:24.886Z,1.60
2018-06-07T07:57:53.271Z,1.92
2018-06-07T08:00:21.678Z,2.00
2018-06-07T08:02:50.009Z,2.42
2018-06-07T08:05:18.356Z,1.95
2018-06-07T08:07:46.897Z,5.18
2018-06-07T08:10:15.248Z,4.00
2018-06-07T08:12:44.054Z,2.62
2018-06-07T08:15:12.404Z,2.00
2018-06-07T08:17:41.509Z,1.95
2018-06-07T08:20:10.770Z,2.67
2018-06-07T08:22:39.091Z,2.37
2018-06-07T08:25:07.507Z,2.70
2018-06-07T08:27:35.862Z,2.42
2018-06-07T08:30:04.239Z,2.08
2018-06-07T08:32:32.584Z,2.50
2018-06-07T08:35:00.950Z,2.53
2018-06-07T08:37:29.276Z,2.58
2018-06-07T08:39:57.642Z,2.10
2018-06-07T08:42:26.163Z,2.03
2018-06-07T08:44:54.504Z,2.10
2018-06-07T08:47:22.856Z,2.42
2018-06-07T08:49:51.193Z,2.45
2018-06-07T08:52:19.558Z,2.45
2018-06-07T08:54:48.038Z,2.40
2018-06-07T08:57:16.442Z,2.42
2018-06-07T08:59:44.809Z,2.37
2018-06-07T09:02:13.178Z,2.35
2018-06-07T09:04:41.518Z,3.83
2018-06-07T09:07:09.970Z,3.50
2018-06-07T09:09:38.228Z,2.58
2018-06-07T09:12:06.612Z,2.15
2018-06-07T09:14:34.974Z,2.50
2018-06-07T09:17:03.481Z,2.28
2018-06-07T09:19:31.896Z,2.37
2018-06-07T09:22:00.197Z,2.25
2018-06-07T09:24:29.307Z,2.62
2018-06-07T09:26:57.644Z,2.65
2018-06-07T09:29:25.989Z,2.83
2018-06-07T09:31:54.352Z,3.28
2018-06-07T09:34:22.765Z,2.60
2018-06-07T09:36:51.070Z,3.35
2018-06-07T09:39:19.593Z,2.97
2018-06-07T09:41:48.037Z,2.87
2018-06-07T09:44:16.464Z,7.20
2018-06-07T09:46:44.893Z,3.17
2018-06-07T09:49:13.220Z,3.28
2018-06-07T09:51:41.547Z,3.10
2018-06-07T09:54:09.979Z,2.92
2018-06-07T09:56:38.322Z,3.22
2018-06-07T09:59:06.680Z,2.87
2018-06-07T10:01:35.105Z,2.95
2018-06-07T10:04:03.508Z,2.90
2018-06-07T10:06:31.846Z,3.62
2018-06-07T10:09:00.242Z,3.42
2018-06-07T10:11:28.713Z,3.15
2018-06-07T10:13:57.153Z,3.28
2018-06-07T10:16:25.506Z,3.55
2018-06-07T10:18:53.862Z,3.40
2018-06-07T10:21:22.301Z,3.10
2018-06-07T10:23:50.830Z,5.10
2018-06-07T10:26:19.290Z,6.35
2018-06-07T10:28:48.492Z,3.83
2018-06-07T10:31:16.902Z,3.58
2018-06-07T10:33:45.280Z,3.40
2018-06-07T10:36:13.636Z,2.95
2018-06-07T10:38:42.030Z,3.20
2018-06-07T10:41:10.450Z,3.12
2018-06-07T10:43:38.910Z,3.50
2018-06-07T10:46:07.292Z,3.78
2018-06-07T10:48:35.669Z,3.37
2018-06-07T10:51:04.073Z,3.83
2018-06-07T10:53:32.531Z,3.42
2018-06-07T10:56:01.007Z,3.35
2018-06-07T10:58:29.396Z,3.42
2018-06-07T11:00:58.785Z,4.00
2018-06-07T11:03:27.179Z,3.50
2018-06-07T11:05:55.554Z,3.65
2018-06-07T11:08:23.933Z,3.72
2018-06-07T11:10:52.314Z,3.83
2018-06-07T11:13:20.794Z,4.00
2018-06-07T11:15:49.199Z,4.00
2018-06-07T11:18:17.602Z,3.80
2018-06-07T11:20:46.755Z,4.25
2018-06-07T11:23:15.425Z,3.87
2018-06-07T11:25:43.882Z,3.83
2018-06-07T11:28:13.026Z,3.87
2018-06-07T11:30:41.497Z,4.10
2018-06-07T11:33:09.867Z,3.80
2018-06-07T11:35:38.288Z,4.12
2018-06-07T11:38:06.696Z,4.10
2018-06-07T11:40:35.100Z,8.77
2018-06-07T11:43:04.464Z,7.03
2018-06-07T11:45:32.839Z,6.07
2018-06-07T11:48:01.355Z,4.53
2018-06-07T11:50:29.708Z,4.68
2018-06-07T11:52:59.153Z,4.87
2018-06-07T11:55:27.647Z,4.32
2018-06-07T11:57:56.022Z,5.53
2018-06-07T12:00:24.414Z,4.90
2018-06-07T12:02:52.783Z,12.32
2018-06-07T12:05:21.322Z,8.77
2018-06-07T12:07:49.715Z,5.12
2018-06-07T12:10:18.425Z,4.62
2018-06-07T12:12:46.808Z,5.30
2018-06-07T12:15:15.167Z,5.72
2018-06-07T12:17:43.835Z,5.78
2018-06-07T12:20:12.197Z,4.50
2018-06-07T12:22:40.887Z,4.57
2018-06-07T12:25:10.056Z,5.18
2018-06-07T12:27:38.427Z,7.55
2018-06-07T12:30:06.799Z,7.87
2018-06-07T12:32:35.631Z,5.93
2018-06-07T12:35:04.016Z,5.12
2018-06-07T12:37:33.273Z,5.25
2018-06-07T12:40:01.729Z,5.62
2018-06-07T12:42:30.330Z,5.82
2018-06-07T12:44:58.696Z,5.60
2018-06-07T12:47:27.070Z,5.87
2018-06-07T12:49:55.482Z,5.78
2018-06-07T12:52:24.152Z,5.85
2018-06-07T12:54:53.719Z,6.57
2018-06-07T12:57:23.161Z,5.93
2018-06-07T12:59:51.559Z,6.00
2018-06-07T13:02:20.229Z,6.22
2018-06-07T13:04:49.004Z,6.07
2018-06-07T13:07:17.398Z,6.65
2018-06-07T13:09:45.778Z,6.45
2018-06-07T13:12:14.975Z,15.43
2018-06-07T13:14:43.365Z,7.68
2018-06-07T13:17:12.555Z,6.30
2018-06-07T13:19:41.003Z,6.55
2018-06-07T13:22:09.993Z,5.70
2018-06-07T13:24:39.909Z,5.68
2018-06-07T13:27:10.133Z,6.57
2018-06-07T13:29:39.900Z,6.15
2018-06-07T13:32:08.282Z,6.30
2018-06-07T13:34:36.764Z,6.60
2018-06-07T13:37:05.631Z,6.28
2018-06-07T13:39:34.043Z,6.10
2018-06-07T13:42:02.515Z,6.45
2018-06-07T13:44:31.002Z,6.37
2018-06-07T13:47:00.640Z,6.60
2018-06-07T13:49:30.596Z,6.10
2018-06-07T13:51:58.946Z,6.05
2018-06-07T13:54:27.703Z,6.22
2018-06-07T13:56:56.070Z,6.55
2018-06-07T13:59:24.457Z,6.07
2018-06-07T14:01:52.941Z,5.65
2018-06-07T14:04:21.315Z,5.93
2018-06-07T14:06:49.687Z,6.07
2018-06-07T14:09:18.055Z,5.95
2018-06-07T14:11:46.566Z,5.87
2018-06-07T14:14:14.916Z,5.75
2018-06-07T14:16:43.299Z,5.65
2018-06-07T14:19:11.692Z,5.20
2018-06-07T14:21:40.120Z,5.37
2018-06-07T14:24:08.490Z,5.80
2018-06-07T14:26:36.855Z,5.70
2018-06-07T14:29:06.022Z,5.57
2018-06-07T14:31:34.507Z,6.40
2018-06-07T14:34:03.795Z,6.18
2018-06-07T14:36:32.570Z,6.03
2018-06-07T14:39:00.939Z,5.22
2018-06-07T14:41:29.346Z,5.80
2018-06-07T14:43:57.717Z,5.15
2018-06-07T14:46:26.097Z,5.28
2018-06-07T14:48:54.487Z,5.43
2018-06-07T14:51:22.974Z,5.40
2018-06-07T14:53:51.442Z,5.62
2018-06-07T14:56:19.823Z,5.87
2018-06-07T14:58:48.496Z,5.87
2018-06-07T15:01:17.166Z,5.70
2018-06-07T15:03:45.587Z,5.70
2018-06-07T15:08:48.602Z,6.18
2018-06-07T15:11:16.995Z,5.35
2018-06-07T15:13:45.548Z,5.57
2018-06-07T15:16:13.915Z,5.32
2018-06-07T15:18:42.277Z,5.62
2018-06-07T15:21:10.667Z,6.47
2018-06-07T15:23:39.051Z,10.70
2018-06-07T15:26:07.455Z,6.10
2018-06-07T15:28:35.879Z,5.80
2018-06-07T15:31:05.022Z,5.85
2018-06-07T15:33:33.425Z,8.40
2018-06-07T15:36:02.139Z,5.80
2018-06-07T15:38:31.292Z,5.75
2018-06-07T15:40:59.671Z,6.10
2018-06-07T15:43:28.052Z,5.80
2018-06-07T15:45:56.667Z,5.35
2018-06-07T15:49:38.464Z,5.82
2018-06-07T15:52:06.841Z,5.87
2018-06-07T15:54:35.293Z,6.30
2018-06-07T15:57:03.680Z,6.10
2018-06-07T15:59:32.135Z,6.43
2018-06-07T16:02:00.493Z,5.45
2018-06-07T16:04:28.854Z,6.62
2018-06-07T16:06:57.987Z,29.60
2018-06-07T16:09:26.331Z,7.87
2018-06-07T16:11:54.817Z,6.05
2018-06-07T16:14:23.325Z,6.10
2018-06-07T16:16:51.690Z,6.22
2018-06-07T16:19:20.074Z,6.30
2018-06-07T16:21:48.455Z,6.12
2018-06-07T16:24:16.797Z,6.20
2018-06-07T16:26:45.136Z,6.03
2018-06-07T16:29:13.519Z,5.75
2018-06-07T16:31:41.958Z,5.30
2018-06-07T16:34:11.279Z,5.95
2018-06-07T16:36:39.784Z,6.15
2018-06-07T16:41:43.800Z,6.10
2018-06-07T16:44:12.166Z,6.40
2018-06-07T16:46:40.482Z,5.62
2018-06-07T16:49:08.938Z,6.25
2018-06-07T16:51:37.347Z,6.07
2018-06-07T16:54:05.723Z,5.95
2018-06-07T16:56:34.255Z,5.90
2018-06-07T16:59:03.357Z,6.37
2018-06-07T17:01:31.712Z,6.35
2018-06-07T17:04:00.933Z,6.15
2018-06-07T17:06:29.286Z,6.18
2018-06-07T17:08:58.401Z,6.18
2018-06-07T17:11:26.810Z,5.80
2018-06-07T17:13:55.166Z,5.78
2018-06-07T17:16:23.559Z,6.45
2018-06-07T17:18:51.894Z,6.15
2018-06-07T17:21:21.024Z,6.35
2018-06-07T17:23:49.361Z,6.15
2018-06-07T17:26:17.901Z,5.87
2018-06-07T17:28:46.281Z,5.87
2018-06-07T17:31:15.390Z,5.80
2018-06-07T17:33:43.889Z,6.70
2018-06-07T17:36:12.350Z,6.03
2018-06-07T17:38:40.683Z,5.70
2018-06-07T17:41:09.832Z,5.87
2018-06-07T17:43:38.281Z,5.80
2018-06-07T17:46:07.497Z,6.32
2018-06-07T17:48:35.886Z,6.00
2018-06-07T17:51:04.273Z,6.18
2018-06-07T17:53:32.844Z,6.10
2018-06-07T17:56:01.185Z,8.70
2018-06-07T17:58:29.720Z,13.52
2018-06-07T18:00:58.968Z,7.97
2018-06-07T18:03:28.071Z,6.18
2018-06-07T18:05:56.465Z,6.20
2018-06-07T18:08:24.840Z,5.90
2018-06-07T18:10:53.291Z,7.32
2018-06-07T18:13:21.731Z,7.25
2018-06-07T18:15:50.950Z,7.30
2018-06-07T18:18:19.447Z,6.80
2018-06-07T18:20:47.766Z,7.37
2018-06-07T18:23:16.269Z,16.83
2018-06-07T18:25:44.635Z,9.82
2018-06-07T18:28:13.011Z,12.85
2018-06-07T18:30:41.815Z,7.95
2018-06-07T18:33:10.291Z,7.15
2018-06-07T18:35:38.663Z,6.62
2018-06-07T18:38:07.031Z,12.00
2018-06-07T18:40:35.480Z,11.20
2018-06-07T18:43:04.619Z,7.70
2018-06-07T18:45:32.992Z,7.43
2018-06-07T18:48:01.369Z,8.15
2018-06-07T18:50:30.225Z,7.80
2018-06-07T18:52:58.666Z,7.70
2018-06-07T18:55:27.042Z,7.68
2018-06-07T18:57:55.439Z,8.07
2018-06-07T19:00:23.808Z,8.32
2018-06-07T19:02:52.176Z,8.30
2018-06-07T19:05:20.588Z,8.02
2018-06-07T19:07:48.940Z,7.47
2018-06-07T19:10:17.306Z,8.32
2018-06-07T19:12:45.662Z,8.20
2018-06-07T19:15:14.039Z,9.05
2018-06-07T19:17:42.411Z,7.60
2018-06-07T19:23:12.186Z,8.90
2018-06-07T19:25:40.561Z,8.25
2018-06-07T19:28:09.060Z,7.50
2018-06-07T19:30:37.625Z,7.78
2018-06-07T19:36:06.040Z,9.03
2018-06-07T19:38:34.406Z,8.70
2018-06-07T19:43:59.981Z,10.00
2018-06-07T19:46:28.349Z,9.00
2018-06-07T19:48:56.722Z,10.48
2018-06-07T19:51:25.083Z,9.40
2018-06-07T19:53:53.924Z,9.00
2018-06-07T19:56:22.373Z,8.95
2018-06-07T19:58:50.715Z,8.50
2018-06-07T20:01:19.074Z,8.13
2018-06-07T20:03:47.595Z,8.85
2018-06-07T20:06:15.975Z,7.85
2018-06-07T20:08:44.324Z,8.23
2018-06-07T20:11:12.734Z,8.10
2018-06-07T20:13:41.645Z,8.98
2018-06-07T20:16:10.211Z,8.15
2018-06-07T20:18:38.583Z,7.97
2018-06-07T20:21:06.921Z,8.68
2018-06-07T20:23:36.046Z,8.07
2018-06-07T20:26:04.876Z,9.07
2018-06-07T20:28:33.276Z,8.57
2018-06-07T20:31:02.531Z,9.77
2018-06-07T20:33:30.908Z,8.88
2018-06-07T20:35:59.341Z,9.20
2018-06-07T20:38:28.554Z,9.23
2018-06-07T20:40:57.651Z,9.40
2018-06-07T20:43:25.998Z,8.90
2018-06-07T20:45:54.382Z,8.73
2018-06-07T20:48:22.825Z,9.00
2018-06-07T20:50:51.203Z,8.98
2018-06-07T20:53:19.651Z,9.07
2018-06-07T20:55:48.048Z,8.80
2018-06-07T20:58:16.422Z,8.43
2018-06-07T21:00:44.781Z,8.68
2018-06-07T21:03:13.892Z,8.43
2018-06-07T21:05:42.246Z,8.98
2018-06-07T21:08:11.349Z,9.02
2018-06-07T21:10:40.480Z,8.60
2018-06-07T21:13:08.931Z,8.60
2018-06-07T21:15:38.918Z,9.13
2018-06-07T21:18:07.267Z,8.35
2018-06-07T21:20:36.892Z,8.90
2018-06-07T21:23:05.561Z,8.80
2018-06-07T21:25:33.931Z,8.63
2018-06-07T21:28:02.287Z,9.15
2018-06-07T21:30:30.639Z,8.93
2018-06-07T21:32:58.973Z,45.58
2018-06-07T21:35:27.560Z,14.10
2018-06-07T21:37:55.989Z,10.65
2018-06-07T21:40:25.116Z,9.98
2018-06-07T21:42:53.476Z,9.52
2018-06-07T21:45:21.815Z,9.40
2018-06-07T21:47:50.174Z,9.75
2018-06-07T21:50:18.594Z,9.77
2018-06-07T21:52:46.959Z,10.43
2018-06-07T21:55:15.418Z,9.95
2018-06-07T21:57:43.857Z,10.52
2018-06-07T22:00:13.082Z,9.63
2018-06-07T22:02:41.467Z,10.15
2018-06-07T22:05:10.186Z,10.27
2018-06-07T22:07:38.834Z,10.02
2018-06-07T22:10:07.171Z,10.35
2018-06-07T22:12:36.321Z,9.70
2018-06-07T22:15:04.669Z,9.75
2018-06-07T22:17:33.791Z,9.88
2018-06-07T22:20:02.170Z,9.82
2018-06-07T22:22:30.555Z,9.55
2018-06-07T22:24:59.535Z,9.40
2018-06-07T22:27:27.922Z,9.48
2018-06-07T22:29:56.574Z,8.65
2018-06-07T22:32:25.131Z,9.20
2018-06-07T22:34:53.467Z,8.85
2018-06-07T22:37:21.853Z,9.68
2018-06-07T22:39:50.687Z,9.25
2018-06-07T22:42:19.047Z,9.52
2018-06-07T22:44:47.413Z,8.95
2018-06-07T22:47:16.087Z,9.07
2018-06-07T22:49:44.463Z,8.93
2018-06-07T22:52:12.913Z,9.50
2018-06-07T22:54:41.464Z,9.63
2018-06-07T22:57:10.005Z,9.57
2018-06-07T22:59:38.688Z,9.70
2018-06-07T23:02:07.213Z,9.70
2018-06-07T23:04:35.558Z,9.88
2018-06-07T23:07:03.951Z,9.20
2018-06-07T23:09:32.845Z,9.43
2018-06-07T23:12:01.449Z,9.30
2018-06-07T23:14:30.334Z,9.80
2018-06-07T23:16:58.691Z,9.73
2018-06-07T23:19:27.043Z,8.85
2018-06-07T23:21:55.756Z,9.70
2018-06-07T23:24:24.327Z,10.07
2018-06-07T23:26:52.702Z,10.77
2018-06-07T23:29:21.083Z,19.17
2018-06-07T23:31:49.831Z,13.18
2018-06-07T23:34:19.169Z,10.50
2018-06-07T23:36:47.665Z,9.90
2018-06-07T23:39:16.858Z,10.70
2018-06-07T23:41:45.735Z,10.75
2018-06-07T23:44:14.305Z,10.80
2018-06-07T23:46:42.665Z,10.00
2018-06-07T23:49:11.108Z,10.18
2018-06-07T23:51:39.487Z,10.13
2018-06-07T23:54:07.899Z,10.82
2018-06-07T23:56:36.240Z,10.00
2018-06-07T23:59:04.606Z,10.10
